Stamford Pioneer — VRJD7 — position and weather

sailwx.info

Track history (hours):
 
Tides and Currents Weather Stations Pressure Air Temp Water Temp Dewpoint Dewpoint Depression Visibility Wind Speed Wind Dir Waves Ship Positions

Stamford Pioneer

Last reported at 2015-Apr-05 16:30 UTC. Time now 2015-Apr-22 03:51 UTC.
Position N 48°23' W 125°10'.
Warning: this ship's position is 16 days out of date.

Length 180 m; draft 9.5 m.

Type: Cargo ship. MMSI: 477462800.

Date/timePositionNaut miles runAvg speedWind from/ knotsBaromVisibWave heightAir tempDewpointWater temp
2015-Apr-05 16:30N 48°23' W 125°10'1111.4
2015-Apr-05 15:33N 48°30' W 124°59'1312.7
2015-Apr-05 14:34N 48°30' W 124°40'1313.2
2015-Apr-05 13:34N 48°24' W 124°21'1212.3
2015-Apr-05 12:34N 48°20' W 124°04'1212.3
2015-Apr-05 11:33N 48°16' W 123°46'1111.4
2015-Apr-05 10:33N 48°16' W 123°29'10 9.7
2015-Apr-05 09:34N 48°23' W 123°19'9 9.0
2015-Apr-05 08:33N 48°31' W 123°13'1212.1
2015-Apr-05 07:34N 48°43' W 123°13'10 9.8
2015-Apr-05 06:34N 48°51' W 123°04'1313.1
2015-Apr-05 05:33N 49°00' W 123°19'1211.8
2015-Apr-05 04:33N 49°12' W 123°22'1110.6
2015-Apr-05 03:33N 49°19' W 123°11'4 4.3
2015-Apr-05 02:33N 49°17' W 123°05'0 0.0
2015-Apr-05 01:33N 49°17' W 123°05'0 0.0
2015-Apr-05 00:33N 49°17' W 123°05'0 0.0
2015-Apr-04 23:33N 49°17' W 123°05'0 0.0
2015-Apr-04 22:31N 49°17' W 123°05'0 0.0
2015-Apr-04 21:32N 49°17' W 123°05'0 0.0
2015-Apr-04 20:33N 49°17' W 123°05'0 0.0
2015-Apr-04 19:31N 49°17' W 123°05'0 0.0
2015-Apr-04 18:31N 49°17' W 123°05'0 0.0
2015-Apr-04 17:33N 49°17' W 123°05'0 0.0
2015-Apr-04 16:31N 49°17' W 123°05'0 0.0
2015-Apr-04 15:33N 49°17' W 123°05'0 0.0
2015-Apr-04 14:33N 49°17' W 123°05'0 0.0
2015-Apr-04 13:33N 49°17' W 123°05'4 4.0
2015-Apr-04 12:33N 49°19' W 123°10'2 1.7
2015-Apr-04 11:31N 49°17' W 123°12'0 0.0
2015-Apr-04 10:32N 49°17' W 123°12'0 0.0
2015-Apr-04 09:25N 49°17' W 123°12'0 0.0
2015-Apr-04 08:31N 49°17' W 123°12'0 0.0
2015-Apr-04 07:31N 49°17' W 123°12'0 0.1
2015-Apr-04 06:32N 49°17' W 123°12'0 0.1
2015-Apr-04 05:32N 49°17' W 123°12'0 0.0
2015-Apr-04 04:32N 49°17' W 123°12'0 0.2
2015-Apr-04 03:32N 49°17' W 123°12'0 0.0
2015-Apr-04 02:32N 49°17' W 123°12'0 0.0
2015-Apr-04 01:31N 49°17' W 123°12'0 0.0
2015-Apr-04 00:31N 49°17' W 123°12'0 0.1
2015-Apr-03 23:31N 49°17' W 123°12'0 0.1
2015-Apr-03 22:31N 49°17' W 123°12'0 0.1
2015-Apr-03 21:31N 49°17' W 123°12'0 0.0
2015-Apr-03 20:31N 49°17' W 123°12'0 0.0
2015-Apr-03 19:26N 49°17' W 123°12'0 0.1
2015-Apr-03 18:31N 49°17' W 123°12'0 0.0
2015-Apr-03 17:32N 49°17' W 123°12'0 0.0
2015-Apr-03 16:31N 49°17' W 123°12'0 0.0
2015-Apr-03 15:31N 49°17' W 123°12'0 0.0
2015-Apr-03 14:32N 49°17' W 123°12'0 0.0
2015-Apr-03 13:32N 49°17' W 123°12'0 0.0
2015-Apr-03 12:32N 49°17' W 123°12'0 0.0
2015-Apr-03 11:32N 49°17' W 123°12'0 0.0
2015-Apr-03 10:26N 49°17' W 123°12'0 0.1
2015-Apr-03 09:32N 49°17' W 123°12'0 0.1
2015-Apr-03 08:25N 49°17' W 123°12'0 0.0
2015-Apr-03 07:31N 49°17' W 123°12'0 0.0
2015-Apr-03 06:31N 49°17' W 123°12'0 0.0
2015-Apr-03 05:32N 49°17' W 123°12'0 0.0
2015-Apr-03 04:31N 49°17' W 123°12'0 0.0
2015-Apr-03 03:31N 49°17' W 123°12'0 0.0
2015-Apr-03 02:31N 49°17' W 123°12'0 0.0
2015-Apr-03 01:25N 49°17' W 123°12'0 0.0
2015-Apr-03 00:19N 49°17' W 123°12'0 0.0
2015-Apr-02 23:31N 49°17' W 123°12'0 0.0
2015-Apr-02 22:32N 49°17' W 123°12'0 0.0
2015-Apr-02 21:32N 49°17' W 123°12'0 0.0
2015-Apr-02 20:31N 49°17' W 123°12'0 0.0
2015-Apr-02 19:31N 49°17' W 123°12'0 0.0
2015-Apr-02 18:31N 49°17' W 123°12'0 0.0
2015-Apr-02 17:32N 49°17' W 123°12'0 0.0
2015-Apr-02 16:32N 49°17' W 123°12'0 0.0
2015-Apr-02 15:31N 49°17' W 123°12'0 0.1
2015-Apr-02 14:31N 49°17' W 123°12'0 0.1
2015-Apr-02 13:32N 49°17' W 123°12'0 0.0
2015-Apr-02 12:32N 49°17' W 123°12'0 0.0
2015-Apr-02 11:32N 49°17' W 123°12'0 0.0
2015-Apr-02 10:32N 49°17' W 123°12'0 0.1
2015-Apr-02 09:31N 49°17' W 123°12'0 0.0
2015-Apr-02 08:26N 49°17' W 123°12'0 0.0
2015-Apr-02 07:32N 49°17' W 123°12'0 0.0
2015-Apr-02 06:25N 49°17' W 123°12'0 0.0
2015-Apr-02 05:25N 49°17' W 123°12'0 0.0
2015-Apr-02 04:32N 49°17' W 123°12'0 0.0
2015-Apr-02 03:32N 49°17' W 123°12'0 0.0
2015-Apr-02 02:26N 49°17' W 123°12'0 0.0
2015-Apr-02 01:31N 49°17' W 123°12'0 0.1
2015-Apr-02 00:31N 49°17' W 123°12'0 0.0
2015-Apr-01 23:31N 49°17' W 123°12'0 0.0
2015-Apr-01 22:32N 49°17' W 123°12'0 0.0
2015-Apr-01 21:32N 49°17' W 123°12'0 0.0
2015-Apr-01 20:31N 49°17' W 123°12'0 0.0
2015-Apr-01 19:31N 49°17' W 123°12'0 0.0
2015-Apr-01 18:32N 49°17' W 123°12'0 0.1
2015-Apr-01 17:28N 49°17' W 123°12'0 0.1
2015-Apr-01 16:32N 49°17' W 123°12'0 0.0
2015-Apr-01 15:32N 49°17' W 123°12'0 0.0
2015-Apr-01 14:31N 49°17' W 123°12'0 0.0
2015-Apr-01 13:32N 49°17' W 123°12'0 0.1
2015-Apr-01 12:31N 49°17' W 123°12'0 0.1
2015-Apr-01 11:32N 49°17' W 123°12'0 0.1
2015-Apr-01 10:32N 49°17' W 123°12'0 0.0
2015-Apr-01 09:32N 49°17' W 123°12'0 0.0
2015-Apr-01 08:32N 49°17' W 123°12'0 0.0
2015-Apr-01 07:32N 49°17' W 123°12'0 0.1
2015-Apr-01 06:32N 49°17' W 123°12'0 0.0
2015-Apr-01 05:31N 49°17' W 123°12'0 0.0
2015-Apr-01 04:32N 49°17' W 123°12'0 0.0
2015-Apr-01 03:32N 49°17' W 123°12'0 0.0
2015-Apr-01 02:32N 49°17' W 123°12'0 0.1
2015-Apr-01 01:32N 49°17' W 123°12'0 0.0
2015-Apr-01 00:32N 49°17' W 123°12'0 0.0
2015-Mar-31 23:32N 49°17' W 123°12'0 0.1
2015-Mar-31 22:31N 49°17' W 123°12'0 0.0
2015-Mar-31 21:32N 49°17' W 123°12'0 0.0
2015-Mar-31 20:32N 49°17' W 123°12'0 0.0
2015-Mar-31 19:31N 49°17' W 123°12'0 0.0
2015-Mar-31 18:32N 49°17' W 123°12'0 0.0
2015-Mar-31 17:31N 49°17' W 123°12'0 0.0
2015-Mar-31 16:32N 49°17' W 123°12'0 0.1
2015-Mar-31 15:32N 49°17' W 123°12'0 0.0
2015-Mar-31 14:31N 49°17' W 123°12'0 0.0
2015-Mar-31 13:31N 49°17' W 123°12'0 0.0
2015-Mar-31 12:31N 49°17' W 123°12'0 0.0
2015-Mar-31 11:31N 49°17' W 123°12'0 0.0
2015-Mar-31 10:31N 49°17' W 123°12'0 0.0
2015-Mar-31 09:31N 49°17' W 123°12'0 0.0
2015-Mar-31 08:32N 49°17' W 123°12'0 0.3
2015-Mar-31 07:31N 49°17' W 123°12'0 0.1
2015-Mar-31 06:31N 49°17' W 123°12'0 0.1
2015-Mar-31 05:32N 49°17' W 123°12'0 0.0
2015-Mar-31 04:31N 49°17' W 123°12'0 0.1
2015-Mar-31 03:32N 49°17' W 123°12'0 0.0
2015-Mar-31 02:32N 49°17' W 123°12'0 0.0
2015-Mar-31 01:28N 49°17' W 123°12'0 0.1
2015-Mar-31 00:31N 49°17' W 123°12'0 0.1
2015-Mar-30 23:28N 49°17' W 123°12'0 0.1
2015-Mar-30 22:25N 49°17' W 123°12'0 0.0
2015-Mar-30 21:32N 49°17' W 123°12'0 0.0
2015-Mar-30 20:31N 49°17' W 123°12'0 0.1
2015-Mar-30 19:32N 49°17' W 123°12'0 0.0
2015-Mar-30 18:31N 49°17' W 123°12'0 0.0
2015-Mar-30 17:31N 49°17' W 123°12'0 0.0
2015-Mar-30 16:31N 49°17' W 123°12'0 0.0
2015-Mar-30 15:32N 49°17' W 123°12'0 0.0
2015-Mar-30 14:25N 49°17' W 123°12'0 0.0
2015-Mar-30 13:32N 49°17' W 123°12'0 0.0
2015-Mar-30 12:32N 49°17' W 123°12'0 0.0
2015-Mar-30 11:32N 49°17' W 123°12'0 0.0
2015-Mar-30 10:29N 49°17' W 123°12'0 0.0
2015-Mar-30 09:32N 49°17' W 123°12'0 0.0
2015-Mar-30 08:32N 49°17' W 123°12'0 0.1
2015-Mar-30 07:32N 49°17' W 123°12'0 0.1
2015-Mar-30 06:28N 49°17' W 123°12'0 0.0
2015-Mar-30 05:32N 49°17' W 123°12'0 0.0
2015-Mar-30 04:32N 49°17' W 123°12'0 0.0
2015-Mar-30 03:28N 49°17' W 123°12'0 0.0
2015-Mar-30 02:32N 49°17' W 123°12'0 0.1
2015-Mar-30 01:32N 49°17' W 123°12'0 0.1
2015-Mar-30 00:32N 49°17' W 123°12'0 0.0
2015-Mar-29 23:31N 49°17' W 123°12'0 0.0
2015-Mar-29 22:31N 49°17' W 123°12'0 0.0
2015-Mar-29 21:32N 49°17' W 123°12'0 0.0
2015-Mar-29 20:31N 49°17' W 123°12'0 0.1
2015-Mar-29 19:32N 49°17' W 123°12'0 0.0
2015-Mar-29 18:32N 49°17' W 123°12'0 0.0
2015-Mar-29 17:32N 49°17' W 123°12'0 0.0
2015-Mar-29 16:32N 49°17' W 123°12'0 0.1
2015-Mar-29 15:31N 49°17' W 123°12'0 0.0
2015-Mar-29 14:32N 49°17' W 123°12'0 0.0
2015-Mar-29 13:32N 49°17' W 123°12'0 0.0
2015-Mar-29 12:32N 49°17' W 123°12'0 0.0
2015-Mar-29 11:32N 49°17' W 123°12'0 0.0
2015-Mar-29 10:31N 49°17' W 123°12'0 0.1
2015-Mar-29 09:31N 49°17' W 123°12'0 0.0
2015-Mar-29 08:32N 49°17' W 123°12'0 0.0
2015-Mar-29 07:32N 49°17' W 123°12'0 0.0
2015-Mar-29 06:25N 49°17' W 123°12'0 0.0
2015-Mar-29 05:31N 49°17' W 123°12'0 0.0
2015-Mar-29 04:32N 49°17' W 123°12'0 0.0
2015-Mar-29 03:32N 49°17' W 123°12'0 0.0
2015-Mar-29 02:28N 49°17' W 123°12'0 0.1
2015-Mar-29 01:31N 49°17' W 123°12'0 0.0
2015-Mar-29 00:32N 49°17' W 123°12'0 0.1
2015-Mar-28 23:28N 49°17' W 123°12'0 0.0
2015-Mar-28 22:32N 49°17' W 123°12'0 0.0
2015-Mar-28 21:32N 49°17' W 123°12'0 0.0
2015-Mar-28 20:31N 49°17' W 123°12'0 0.0
2015-Mar-28 19:32N 49°17' W 123°12'0 0.1
2015-Mar-28 18:32N 49°17' W 123°12'0 0.1
2015-Mar-28 17:31N 49°17' W 123°12'0 0.0
2015-Mar-28 16:32N 49°17' W 123°12'0 0.0
2015-Mar-28 15:32N 49°17' W 123°12'0 0.0
2015-Mar-28 14:31N 49°17' W 123°12'0 0.0
2015-Mar-28 13:32N 49°17' W 123°12'0 0.0
2015-Mar-28 12:32N 49°17' W 123°12'0 0.1
2015-Mar-28 11:32N 49°17' W 123°12'0 0.1
2015-Mar-28 10:28N 49°17' W 123°12'0 0.1
2015-Mar-28 09:31N 49°17' W 123°12'0 0.0
2015-Mar-28 08:31N 49°17' W 123°12'0 0.0
2015-Mar-28 07:32N 49°17' W 123°12'0 0.0
2015-Mar-28 06:32N 49°17' W 123°12'0 0.0
2015-Mar-28 05:31N 49°17' W 123°12'0 0.1
2015-Mar-28 04:31N 49°17' W 123°12'0 0.0
2015-Mar-28 03:31N 49°17' W 123°12'0 0.0
2015-Mar-28 02:32N 49°17' W 123°12'0 0.1
2015-Mar-28 01:31N 49°17' W 123°12'0 0.1
2015-Mar-28 00:29N 49°17' W 123°12'0 0.1
2015-Mar-27 23:31N 49°17' W 123°12'0 0.0
2015-Mar-27 22:32N 49°17' W 123°12'0 0.1
2015-Mar-27 21:32N 49°17' W 123°12'0 0.0
2015-Mar-27 20:31N 49°17' W 123°12'0 0.0
2015-Mar-27 19:32N 49°17' W 123°12'0 0.0
2015-Mar-27 18:32N 49°17' W 123°12'0 0.0
2015-Mar-27 17:32N 49°17' W 123°12'0 0.0
2015-Mar-27 16:32N 49°17' W 123°12'0 0.0
2015-Mar-27 15:28N 49°17' W 123°12'0 0.0
2015-Mar-27 14:32N 49°17' W 123°12'0 0.1
2015-Mar-27 13:31N 49°17' W 123°12'0 0.1
2015-Mar-27 12:32N 49°17' W 123°12'0 0.0
2015-Mar-27 11:32N 49°17' W 123°12'0 0.0
2015-Mar-27 10:31N 49°17' W 123°12'0 0.0
2015-Mar-27 09:31N 49°17' W 123°12'0 0.0
2015-Mar-27 08:31N 49°17' W 123°12'0 0.0
2015-Mar-27 07:31N 49°17' W 123°12'0 0.0
2015-Mar-27 06:31N 49°17' W 123°12'0 0.0
2015-Mar-27 05:32N 49°17' W 123°12'0 0.0
2015-Mar-27 04:32N 49°17' W 123°12'0 0.0
2015-Mar-27 03:32N 49°17' W 123°12'0 0.0
2015-Mar-27 02:32N 49°17' W 123°12'0 0.0
2015-Mar-27 01:31N 49°17' W 123°12'0 0.0
2015-Mar-27 00:32N 49°17' W 123°12'0 0.1
2015-Mar-26 23:31N 49°17' W 123°12'0 0.0
2015-Mar-26 22:32N 49°17' W 123°12'0 0.0
2015-Mar-26 21:32N 49°17' W 123°12'0 0.0
2015-Mar-26 20:31N 49°17' W 123°12'0 0.0
2015-Mar-26 19:31N 49°17' W 123°12'0 0.0
2015-Mar-26 18:32N 49°17' W 123°12'0 0.0
2015-Mar-26 17:29N 49°17' W 123°12'0 0.0
2015-Mar-26 16:31N 49°17' W 123°12'  
Track history (hours):
 
Tides and Currents Weather Stations Pressure Air Temp Water Temp Dewpoint Dewpoint Depression Visibility Wind Speed Wind Dir Waves Ship Positions

Stamford Pioneer

Last reported at 2015-Apr-05 16:30 UTC. Time now 2015-Apr-22 03:51 UTC.
Position N 48°23' W 125°10'.
Warning: this ship's position is 16 days out of date.

Length 180 m; draft 9.5 m.

Type: Cargo ship. MMSI: 477462800.

Date/timePositionNaut miles runAvg speedWind from/ knotsBaromVisibWave heightAir tempDewpointWater temp
2015-Apr-05 16:30N 48°23' W 125°10'1111.4
2015-Apr-05 15:33N 48°30' W 124°59'1312.7
2015-Apr-05 14:34N 48°30' W 124°40'1313.2
2015-Apr-05 13:34N 48°24' W 124°21'1212.3
2015-Apr-05 12:34N 48°20' W 124°04'1212.3
2015-Apr-05 11:33N 48°16' W 123°46'1111.4
2015-Apr-05 10:33N 48°16' W 123°29'10 9.7
2015-Apr-05 09:34N 48°23' W 123°19'9 9.0
2015-Apr-05 08:33N 48°31' W 123°13'1212.1
2015-Apr-05 07:34N 48°43' W 123°13'10 9.8
2015-Apr-05 06:34N 48°51' W 123°04'1313.1
2015-Apr-05 05:33N 49°00' W 123°19'1211.8
2015-Apr-05 04:33N 49°12' W 123°22'1110.6
2015-Apr-05 03:33N 49°19' W 123°11'4 4.3
2015-Apr-05 02:33N 49°17' W 123°05'0 0.0
2015-Apr-05 01:33N 49°17' W 123°05'0 0.0
2015-Apr-05 00:33N 49°17' W 123°05'0 0.0
2015-Apr-04 23:33N 49°17' W 123°05'0 0.0
2015-Apr-04 22:31N 49°17' W 123°05'0 0.0
2015-Apr-04 21:32N 49°17' W 123°05'0 0.0
2015-Apr-04 20:33N 49°17' W 123°05'0 0.0
2015-Apr-04 19:31N 49°17' W 123°05'0 0.0
2015-Apr-04 18:31N 49°17' W 123°05'0 0.0
2015-Apr-04 17:33N 49°17' W 123°05'0 0.0
2015-Apr-04 16:31N 49°17' W 123°05'0 0.0
2015-Apr-04 15:33N 49°17' W 123°05'0 0.0
2015-Apr-04 14:33N 49°17' W 123°05'0 0.0
2015-Apr-04 13:33N 49°17' W 123°05'4 4.0
2015-Apr-04 12:33N 49°19' W 123°10'2 1.7
2015-Apr-04 11:31N 49°17' W 123°12'0 0.0
2015-Apr-04 10:32N 49°17' W 123°12'0 0.0
2015-Apr-04 09:25N 49°17' W 123°12'0 0.0
2015-Apr-04 08:31N 49°17' W 123°12'0 0.0
2015-Apr-04 07:31N 49°17' W 123°12'0 0.1
2015-Apr-04 06:32N 49°17' W 123°12'0 0.1
2015-Apr-04 05:32N 49°17' W 123°12'0 0.0
2015-Apr-04 04:32N 49°17' W 123°12'0 0.2
2015-Apr-04 03:32N 49°17' W 123°12'0 0.0
2015-Apr-04 02:32N 49°17' W 123°12'0 0.0
2015-Apr-04 01:31N 49°17' W 123°12'0 0.0
2015-Apr-04 00:31N 49°17' W 123°12'0 0.1
2015-Apr-03 23:31N 49°17' W 123°12'0 0.1
2015-Apr-03 22:31N 49°17' W 123°12'0 0.1
2015-Apr-03 21:31N 49°17' W 123°12'0 0.0
2015-Apr-03 20:31N 49°17' W 123°12'0 0.0
2015-Apr-03 19:26N 49°17' W 123°12'0 0.1
2015-Apr-03 18:31N 49°17' W 123°12'0 0.0
2015-Apr-03 17:32N 49°17' W 123°12'0 0.0
2015-Apr-03 16:31N 49°17' W 123°12'0 0.0
2015-Apr-03 15:31N 49°17' W 123°12'0 0.0
2015-Apr-03 14:32N 49°17' W 123°12'0 0.0
2015-Apr-03 13:32N 49°17' W 123°12'0 0.0
2015-Apr-03 12:32N 49°17' W 123°12'0 0.0
2015-Apr-03 11:32N 49°17' W 123°12'0 0.0
2015-Apr-03 10:26N 49°17' W 123°12'0 0.1
2015-Apr-03 09:32N 49°17' W 123°12'0 0.1
2015-Apr-03 08:25N 49°17' W 123°12'0 0.0
2015-Apr-03 07:31N 49°17' W 123°12'0 0.0
2015-Apr-03 06:31N 49°17' W 123°12'0 0.0
2015-Apr-03 05:32N 49°17' W 123°12'0 0.0
2015-Apr-03 04:31N 49°17' W 123°12'0 0.0
2015-Apr-03 03:31N 49°17' W 123°12'0 0.0
2015-Apr-03 02:31N 49°17' W 123°12'0 0.0
2015-Apr-03 01:25N 49°17' W 123°12'0 0.0
2015-Apr-03 00:19N 49°17' W 123°12'0 0.0
2015-Apr-02 23:31N 49°17' W 123°12'0 0.0
2015-Apr-02 22:32N 49°17' W 123°12'0 0.0
2015-Apr-02 21:32N 49°17' W 123°12'0 0.0
2015-Apr-02 20:31N 49°17' W 123°12'0 0.0
2015-Apr-02 19:31N 49°17' W 123°12'0 0.0
2015-Apr-02 18:31N 49°17' W 123°12'0 0.0
2015-Apr-02 17:32N 49°17' W 123°12'0 0.0
2015-Apr-02 16:32N 49°17' W 123°12'0 0.0
2015-Apr-02 15:31N 49°17' W 123°12'0 0.1
2015-Apr-02 14:31N 49°17' W 123°12'0 0.1
2015-Apr-02 13:32N 49°17' W 123°12'0 0.0
2015-Apr-02 12:32N 49°17' W 123°12'0 0.0
2015-Apr-02 11:32N 49°17' W 123°12'0 0.0
2015-Apr-02 10:32N 49°17' W 123°12'0 0.1
2015-Apr-02 09:31N 49°17' W 123°12'0 0.0
2015-Apr-02 08:26N 49°17' W 123°12'0 0.0
2015-Apr-02 07:32N 49°17' W 123°12'0 0.0
2015-Apr-02 06:25N 49°17' W 123°12'0 0.0
2015-Apr-02 05:25N 49°17' W 123°12'0 0.0
2015-Apr-02 04:32N 49°17' W 123°12'0 0.0
2015-Apr-02 03:32N 49°17' W 123°12'0 0.0
2015-Apr-02 02:26N 49°17' W 123°12'0 0.0
2015-Apr-02 01:31N 49°17' W 123°12'0 0.1
2015-Apr-02 00:31N 49°17' W 123°12'0 0.0
2015-Apr-01 23:31N 49°17' W 123°12'0 0.0
2015-Apr-01 22:32N 49°17' W 123°12'0 0.0
2015-Apr-01 21:32N 49°17' W 123°12'0 0.0
2015-Apr-01 20:31N 49°17' W 123°12'0 0.0
2015-Apr-01 19:31N 49°17' W 123°12'0 0.0
2015-Apr-01 18:32N 49°17' W 123°12'0 0.1
2015-Apr-01 17:28N 49°17' W 123°12'0 0.1
2015-Apr-01 16:32N 49°17' W 123°12'0 0.0
2015-Apr-01 15:32N 49°17' W 123°12'0 0.0
2015-Apr-01 14:31N 49°17' W 123°12'0 0.0
2015-Apr-01 13:32N 49°17' W 123°12'0 0.1
2015-Apr-01 12:31N 49°17' W 123°12'0 0.1
2015-Apr-01 11:32N 49°17' W 123°12'0 0.1
2015-Apr-01 10:32N 49°17' W 123°12'0 0.0
2015-Apr-01 09:32N 49°17' W 123°12'0 0.0
2015-Apr-01 08:32N 49°17' W 123°12'0 0.0
2015-Apr-01 07:32N 49°17' W 123°12'0 0.1
2015-Apr-01 06:32N 49°17' W 123°12'0 0.0
2015-Apr-01 05:31N 49°17' W 123°12'0 0.0
2015-Apr-01 04:32N 49°17' W 123°12'0 0.0
2015-Apr-01 03:32N 49°17' W 123°12'0 0.0
2015-Apr-01 02:32N 49°17' W 123°12'0 0.1
2015-Apr-01 01:32N 49°17' W 123°12'0 0.0
2015-Apr-01 00:32N 49°17' W 123°12'0 0.0
2015-Mar-31 23:32N 49°17' W 123°12'0 0.1
2015-Mar-31 22:31N 49°17' W 123°12'0 0.0
2015-Mar-31 21:32N 49°17' W 123°12'0 0.0
2015-Mar-31 20:32N 49°17' W 123°12'0 0.0
2015-Mar-31 19:31N 49°17' W 123°12'0 0.0
2015-Mar-31 18:32N 49°17' W 123°12'0 0.0
2015-Mar-31 17:31N 49°17' W 123°12'0 0.0
2015-Mar-31 16:32N 49°17' W 123°12'0 0.1
2015-Mar-31 15:32N 49°17' W 123°12'0 0.0
2015-Mar-31 14:31N 49°17' W 123°12'0 0.0
2015-Mar-31 13:31N 49°17' W 123°12'0 0.0
2015-Mar-31 12:31N 49°17' W 123°12'0 0.0
2015-Mar-31 11:31N 49°17' W 123°12'0 0.0
2015-Mar-31 10:31N 49°17' W 123°12'0 0.0
2015-Mar-31 09:31N 49°17' W 123°12'0 0.0
2015-Mar-31 08:32N 49°17' W 123°12'0 0.3
2015-Mar-31 07:31N 49°17' W 123°12'0 0.1
2015-Mar-31 06:31N 49°17' W 123°12'0 0.1
2015-Mar-31 05:32N 49°17' W 123°12'0 0.0
2015-Mar-31 04:31N 49°17' W 123°12'0 0.1
2015-Mar-31 03:32N 49°17' W 123°12'0 0.0
2015-Mar-31 02:32N 49°17' W 123°12'0 0.0
2015-Mar-31 01:28N 49°17' W 123°12'0 0.1
2015-Mar-31 00:31N 49°17' W 123°12'0 0.1
2015-Mar-30 23:28N 49°17' W 123°12'0 0.1
2015-Mar-30 22:25N 49°17' W 123°12'0 0.0
2015-Mar-30 21:32N 49°17' W 123°12'0 0.0
2015-Mar-30 20:31N 49°17' W 123°12'0 0.1
2015-Mar-30 19:32N 49°17' W 123°12'0 0.0
2015-Mar-30 18:31N 49°17' W 123°12'0 0.0
2015-Mar-30 17:31N 49°17' W 123°12'0 0.0
2015-Mar-30 16:31N 49°17' W 123°12'0 0.0
2015-Mar-30 15:32N 49°17' W 123°12'0 0.0
2015-Mar-30 14:25N 49°17' W 123°12'0 0.0
2015-Mar-30 13:32N 49°17' W 123°12'0 0.0
2015-Mar-30 12:32N 49°17' W 123°12'0 0.0
2015-Mar-30 11:32N 49°17' W 123°12'0 0.0
2015-Mar-30 10:29N 49°17' W 123°12'0 0.0
2015-Mar-30 09:32N 49°17' W 123°12'0 0.0
2015-Mar-30 08:32N 49°17' W 123°12'0 0.1
2015-Mar-30 07:32N 49°17' W 123°12'0 0.1
2015-Mar-30 06:28N 49°17' W 123°12'0 0.0
2015-Mar-30 05:32N 49°17' W 123°12'0 0.0
2015-Mar-30 04:32N 49°17' W 123°12'0 0.0
2015-Mar-30 03:28N 49°17' W 123°12'0 0.0
2015-Mar-30 02:32N 49°17' W 123°12'0 0.1
2015-Mar-30 01:32N 49°17' W 123°12'0 0.1
2015-Mar-30 00:32N 49°17' W 123°12'0 0.0
2015-Mar-29 23:31N 49°17' W 123°12'0 0.0
2015-Mar-29 22:31N 49°17' W 123°12'0 0.0
2015-Mar-29 21:32N 49°17' W 123°12'0 0.0
2015-Mar-29 20:31N 49°17' W 123°12'0 0.1
2015-Mar-29 19:32N 49°17' W 123°12'0 0.0
2015-Mar-29 18:32N 49°17' W 123°12'0 0.0
2015-Mar-29 17:32N 49°17' W 123°12'0 0.0
2015-Mar-29 16:32N 49°17' W 123°12'0 0.1
2015-Mar-29 15:31N 49°17' W 123°12'0 0.0
2015-Mar-29 14:32N 49°17' W 123°12'0 0.0
2015-Mar-29 13:32N 49°17' W 123°12'0 0.0
2015-Mar-29 12:32N 49°17' W 123°12'0 0.0
2015-Mar-29 11:32N 49°17' W 123°12'0 0.0
2015-Mar-29 10:31N 49°17' W 123°12'0 0.1
2015-Mar-29 09:31N 49°17' W 123°12'0 0.0
2015-Mar-29 08:32N 49°17' W 123°12'0 0.0
2015-Mar-29 07:32N 49°17' W 123°12'0 0.0
2015-Mar-29 06:25N 49°17' W 123°12'0 0.0
2015-Mar-29 05:31N 49°17' W 123°12'0 0.0
2015-Mar-29 04:32N 49°17' W 123°12'0 0.0
2015-Mar-29 03:32N 49°17' W 123°12'0 0.0
2015-Mar-29 02:28N 49°17' W 123°12'0 0.1
2015-Mar-29 01:31N 49°17' W 123°12'0 0.0
2015-Mar-29 00:32N 49°17' W 123°12'0 0.1
2015-Mar-28 23:28N 49°17' W 123°12'0 0.0
2015-Mar-28 22:32N 49°17' W 123°12'0 0.0
2015-Mar-28 21:32N 49°17' W 123°12'0 0.0
2015-Mar-28 20:31N 49°17' W 123°12'0 0.0
2015-Mar-28 19:32N 49°17' W 123°12'0 0.1
2015-Mar-28 18:32N 49°17' W 123°12'0 0.1
2015-Mar-28 17:31N 49°17' W 123°12'0 0.0
2015-Mar-28 16:32N 49°17' W 123°12'0 0.0
2015-Mar-28 15:32N 49°17' W 123°12'0 0.0
2015-Mar-28 14:31N 49°17' W 123°12'0 0.0
2015-Mar-28 13:32N 49°17' W 123°12'0 0.0
2015-Mar-28 12:32N 49°17' W 123°12'0 0.1
2015-Mar-28 11:32N 49°17' W 123°12'0 0.1
2015-Mar-28 10:28N 49°17' W 123°12'0 0.1
2015-Mar-28 09:31N 49°17' W 123°12'0 0.0
2015-Mar-28 08:31N 49°17' W 123°12'0 0.0
2015-Mar-28 07:32N 49°17' W 123°12'0 0.0
2015-Mar-28 06:32N 49°17' W 123°12'0 0.0
2015-Mar-28 05:31N 49°17' W 123°12'0 0.1
2015-Mar-28 04:31N 49°17' W 123°12'0 0.0
2015-Mar-28 03:31N 49°17' W 123°12'0 0.0
2015-Mar-28 02:32N 49°17' W 123°12'0 0.1
2015-Mar-28 01:31N 49°17' W 123°12'0 0.1
2015-Mar-28 00:29N 49°17' W 123°12'0 0.1
2015-Mar-27 23:31N 49°17' W 123°12'0 0.0
2015-Mar-27 22:32N 49°17' W 123°12'0 0.1
2015-Mar-27 21:32N 49°17' W 123°12'0 0.0
2015-Mar-27 20:31N 49°17' W 123°12'0 0.0
2015-Mar-27 19:32N 49°17' W 123°12'0 0.0
2015-Mar-27 18:32N 49°17' W 123°12'0 0.0
2015-Mar-27 17:32N 49°17' W 123°12'0 0.0
2015-Mar-27 16:32N 49°17' W 123°12'0 0.0
2015-Mar-27 15:28N 49°17' W 123°12'0 0.0
2015-Mar-27 14:32N 49°17' W 123°12'0 0.1
2015-Mar-27 13:31N 49°17' W 123°12'0 0.1
2015-Mar-27 12:32N 49°17' W 123°12'0 0.0
2015-Mar-27 11:32N 49°17' W 123°12'0 0.0
2015-Mar-27 10:31N 49°17' W 123°12'0 0.0
2015-Mar-27 09:31N 49°17' W 123°12'0 0.0
2015-Mar-27 08:31N 49°17' W 123°12'0 0.0
2015-Mar-27 07:31N 49°17' W 123°12'0 0.0
2015-Mar-27 06:31N 49°17' W 123°12'0 0.0
2015-Mar-27 05:32N 49°17' W 123°12'0 0.0
2015-Mar-27 04:32N 49°17' W 123°12'0 0.0
2015-Mar-27 03:32N 49°17' W 123°12'0 0.0
2015-Mar-27 02:32N 49°17' W 123°12'0 0.0
2015-Mar-27 01:31N 49°17' W 123°12'0 0.0
2015-Mar-27 00:32N 49°17' W 123°12'0 0.1
2015-Mar-26 23:31N 49°17' W 123°12'0 0.0
2015-Mar-26 22:32N 49°17' W 123°12'0 0.0
2015-Mar-26 21:32N 49°17' W 123°12'0 0.0
2015-Mar-26 20:31N 49°17' W 123°12'0 0.0
2015-Mar-26 19:31N 49°17' W 123°12'0 0.0
2015-Mar-26 18:32N 49°17' W 123°12'0 0.0
2015-Mar-26 17:29N 49°17' W 123°12'0 0.0
2015-Mar-26 16:31N 49°17' W 123°12'  

Dump ship's entire track history